KPIH/PIH METAR and TAF weather

Enter ICAO airport designator
Station Type Date Time Source
KPIH METAR 2020/01/19 22:53 UTC NOAA

KPIH 192253Z 03007KT 10SM CLR M03/M09 A3049 RMK AO2 SLP381 T10331094


Station Type Date Time Source
KPIH Decoded METAR 2020/01/19 22:53 UTC NOAA

POCATELLO REGIONAL AIRPORT, ID, United States (KPIH) 42-55N 112-36W 1359M
Jan 19, 2020 - 05:53 PM EST / 2020.01.19 2253 UTC
Wind: from the NNE (030 degrees) at 8 MPH (7 KT):0
Visibility: 10 mile(s):0
Sky conditions: clear
Temperature: 26.1 F (-3.3 C)
Windchill: 17 F (-8 C):1
Dew Point: 15.1 F (-9.4 C)
Relative Humidity: 62%
Pressure (altimeter): 30.49 in. Hg (1032 hPa)
ob: KPIH 192253Z 03007KT 10SM CLR M03/M09 A3049 RMK AO2 SLP381 T10331094
cycle: 23

Station Type Date Time Source
KPIH TAF 2020/01/19 18:22 UTC NOAA

TAF KPIH 191720Z 1918/2018 04006KT P6SM FEW050

Example: see airport list